Time;durP1;ratioP1;P1;durP2;ratioP2;P2;SDS_P1;SDS_P2;PMS_P1;PMS_P2;Temp;Humidity;BMP_temperature;BMP_pressure;BME280_temperature;BME280_humidity;BME280_pressure;Samples;Min_cycle;Max_cycle;Signal;HPM_P1;HPM_P2
2023/07/08 00:00:53;;;;;;;3.15;2.78;;;;;;;20.47;62.76;101641.75;10251462;28;20067;-65
2023/07/08 00:05:55;;;;;;;3.47;2.85;;;;;;;20.38;62.01;101644.03;10249051;29;20035;-66
2023/07/08 00:10:55;;;;;;;3.47;3.10;;;;;;;20.31;63.64;101643.38;10249044;29;20043;-65
2023/07/08 00:15:56;;;;;;;2.92;2.72;;;;;;;20.29;62.66;101628.19;10251526;29;20483;-65
2023/07/08 00:20:58;;;;;;;7.32;3.00;;;;;;;20.33;60.64;101630.22;10252726;28;20043;-65
2023/07/08 00:25:59;;;;;;;3.78;3.33;;;;;;;20.23;61.61;101634.66;10249785;29;20027;-65
2023/07/08 00:30:59;;;;;;;3.30;2.85;;;;;;;20.11;60.45;101638.28;10250421;29;20039;-65
2023/07/08 00:35:59;;;;;;;2.40;2.20;;;;;;;19.98;59.81;101641.31;10253279;28;20042;-65
2023/07/08 00:41:08;;;;;;;3.63;2.65;;;;;;;19.84;60.48;101631.63;10257842;28;20174;-65
2023/07/08 00:46:11;;;;;;;4.70;2.85;;;;;;;19.71;60.86;101630.81;10239651;29;20035;-66
2023/07/08 00:51:12;;;;;;;4.50;3.20;;;;;;;19.60;61.49;101625.31;10256130;28;20106;-65
2023/07/08 00:56:17;;;;;;;5.45;3.03;;;;;;;19.56;63.47;101624.97;10238528;29;20117;-66
2023/07/08 01:01:18;;;;;;;6.13;2.38;;;;;;;19.47;62.61;101615.41;10255039;29;20374;-65
2023/07/08 01:06:18;;;;;;;4.13;3.53;;;;;;;19.41;62.76;101613.63;10239122;29;20031;-65
2023/07/08 01:11:21;;;;;;;3.40;3.10;;;;;;;19.28;63.00;101607.28;10238878;29;20138;-65
2023/07/08 01:16:22;;;;;;;2.70;2.50;;;;;;;19.25;66.43;101612.41;10238372;29;20074;-65
2023/07/08 01:21:37;;;;;;;4.28;3.13;;;;;;;19.24;65.87;101611.59;10255562;29;20116;-65
2023/07/08 01:26:39;;;;;;;3.50;3.03;;;;;;;19.17;65.33;101599.88;10238527;29;20031;-66
2023/07/08 01:31:40;;;;;;;3.97;3.60;;;;;;;19.15;65.05;101613.00;10253884;29;20033;-65
2023/07/08 01:36:42;;;;;;;3.35;3.05;;;;;;;19.03;67.30;101602.00;10254510;29;20031;-65
2023/07/08 01:41:43;;;;;;;2.70;2.50;;;;;;;19.02;67.56;101607.75;10254282;29;20027;-65
2023/07/08 01:46:43;;;;;;;4.90;2.95;;;;;;;18.93;67.59;101590.78;10236534;28;20063;-64
2023/07/08 01:51:44;;;;;;;2.90;2.70;;;;;;;18.84;71.56;101594.09;10253164;29;20484;-65
2023/07/08 01:56:44;;;;;;;8.27;2.90;;;;;;;18.74;72.61;101584.53;10236464;29;20057;-65
2023/07/08 02:01:47;;;;;;;5.22;3.22;;;;;;;18.64;73.02;101576.03;10252527;29;20039;-65
2023/07/08 02:06:57;;;;;;;4.13;3.08;;;;;;;18.57;72.68;101573.38;10253821;28;20448;-64
2023/07/08 02:11:58;;;;;;;7.25;3.38;;;;;;;18.47;76.93;101570.34;10253881;28;20035;-65
2023/07/08 02:16:58;;;;;;;19.98;3.85;;;;;;;18.41;77.70;101562.22;10253839;28;20455;-64
2023/07/08 02:22:00;;;;;;;3.25;2.95;;;;;;;18.35;77.08;101566.75;10252498;29;20459;-64
2023/07/08 02:27:00;;;;;;;3.53;3.22;;;;;;;18.21;78.90;101565.25;10253171;28;20051;-65
2023/07/08 02:32:00;;;;;;;3.05;2.80;;;;;;;18.12;78.89;101564.72;10253299;29;20403;-65
2023/07/08 02:37:01;;;;;;;4.07;3.05;;;;;;;18.06;79.11;101568.41;10254590;29;20075;-64
2023/07/08 02:42:02;;;;;;;4.72;3.08;;;;;;;17.95;78.88;101553.56;10254639;29;20082;-64
2023/07/08 02:47:02;;;;;;;2.13;1.98;;;;;;;17.92;77.17;101547.72;10253440;28;20063;-65
2023/07/08 02:52:03;;;;;;;4.43;2.92;;;;;;;17.84;78.11;101544.25;10253188;29;20031;-65
2023/07/08 02:57:03;;;;;;;3.20;2.70;;;;;;;17.70;78.84;101553.63;10257731;29;20051;-65
2023/07/08 03:02:04;;;;;;;4.32;3.95;;;;;;;17.64;80.58;101552.69;10257383;28;20047;-65
2023/07/08 03:07:04;;;;;;;4.95;3.00;;;;;;;17.54;84.10;101552.34;10251015;29;20112;-66
2023/07/08 03:12:08;;;;;;;14.68;3.65;;;;;;;17.52;85.57;101548.19;10251936;29;20043;-65
2023/07/08 03:17:09;;;;;;;3.40;3.10;;;;;;;17.44;84.49;101560.25;10251353;29;20071;-66
2023/07/08 03:22:09;;;;;;;4.40;3.25;;;;;;;17.38;84.61;101559.25;10250482;29;20038;-65
2023/07/08 03:27:09;;;;;;;6.85;3.30;;;;;;;17.31;83.63;101560.41;10235136;29;20035;-65
2023/07/08 03:32:10;;;;;;;5.07;3.47;;;;;;;17.23;81.96;101568.91;10250956;29;20070;-65
2023/07/08 03:37:11;;;;;;;12.52;3.35;;;;;;;17.26;82.58;101565.72;10251226;29;20063;-66
2023/07/08 03:42:11;;;;;;;6.22;3.78;;;;;;;17.25;84.60;101570.34;10233889;29;20067;-65
2023/07/08 03:47:12;;;;;;;4.35;3.67;;;;;;;17.23;86.78;101561.53;10249624;29;20409;-64
2023/07/08 03:52:15;;;;;;;3.85;3.55;;;;;;;17.20;84.33;101568.31;10265561;28;20043;-64
2023/07/08 03:57:16;;;;;;;4.32;3.83;;;;;;;17.14;83.90;101569.19;10247449;29;20055;-66
2023/07/08 04:02:16;;;;;;;6.40;3.60;;;;;;;17.13;86.52;101574.88;10250869;29;20079;-66
2023/07/08 04:07:16;;;;;;;7.40;4.55;;;;;;;17.15;86.89;101570.88;10250174;29;20031;-65
2023/07/08 04:12:17;;;;;;;3.95;3.30;;;;;;;17.17;85.58;101576.97;10254396;28;20066;-65
2023/07/08 04:17:18;;;;;;;8.15;3.88;;;;;;;17.16;85.08;101568.97;10256776;29;20432;-65
2023/07/08 04:22:18;;;;;;;12.02;3.88;;;;;;;17.20;85.70;101583.88;10240730;29;20506;-65
2023/07/08 04:27:18;;;;;;;7.45;3.88;;;;;;;17.24;84.71;101587.84;10257602;29;20031;-65
2023/07/08 04:32:19;;;;;;;7.78;4.60;;;;;;;17.29;85.04;101581.69;10257622;29;20083;-65
2023/07/08 04:37:19;;;;;;;6.90;3.90;;;;;;;17.36;85.56;101575.09;10271743;28;20404;-65
2023/07/08 04:42:19;;;;;;;3.08;2.88;;;;;;;17.46;86.94;101576.47;10257923;29;20046;-64
2023/07/08 04:47:20;;;;;;;5.57;3.53;;;;;;;17.83;84.90;101586.38;10257128;29;20043;-65
2023/07/08 04:52:20;;;;;;;3.63;3.33;;;;;;;18.74;82.34;101584.53;10255866;29;20035;-64
2023/07/08 04:57:21;;;;;;;3.92;3.63;;;;;;;19.45;81.29;101579.94;10257376;29;20063;-66
2023/07/08 05:02:21;;;;;;;4.68;4.07;;;;;;;19.85;80.16;101572.88;10256074;28;20500;-65
2023/07/08 05:07:21;;;;;;;5.20;3.97;;;;;;;20.10;78.75;101573.38;10254496;29;20095;-65
2023/07/08 05:12:22;;;;;;;3.75;3.10;;;;;;;20.48;76.83;101569.13;10270610;28;20074;-66
2023/07/08 05:17:24;;;;;;;10.82;3.60;;;;;;;21.00;73.79;101568.13;10254835;29;20444;-66
2023/07/08 05:22:25;;;;;;;4.57;4.10;;;;;;;21.39;72.32;101557.19;10255090;28;20043;-64
2023/07/08 05:27:26;;;;;;;7.15;3.10;;;;;;;21.69;71.05;101565.00;10273557;28;20359;-66
2023/07/08 05:32:27;;;;;;;4.18;3.80;;;;;;;22.10;69.08;101573.78;10256568;28;20110;-65
2023/07/08 05:37:28;;;;;;;4.22;3.83;;;;;;;22.42;66.68;101571.13;10254026;29;20089;-65
2023/07/08 05:42:29;;;;;;;4.50;4.07;;;;;;;22.67;63.99;101568.63;10253915;28;20112;-66
2023/07/08 05:47:29;;;;;;;4.80;4.20;;;;;;;22.88;60.76;101560.53;10254936;29;20415;-65
2023/07/08 05:52:29;;;;;;;3.92;3.63;;;;;;;23.07;60.04;101563.72;10254514;28;20094;-65
2023/07/08 05:57:30;;;;;;;5.25;4.03;;;;;;;23.48;58.41;101561.22;10255681;29;20051;-64
2023/07/08 06:02:30;;;;;;;7.60;3.50;;;;;;;23.60;57.31;101564.59;10254576;29;20050;-66
2023/07/08 06:07:32;;;;;;;3.92;3.63;;;;;;;23.80;56.81;101561.13;10253219;29;20058;-65
2023/07/08 06:12:32;;;;;;;3.60;3.28;;;;;;;24.07;56.35;101561.78;10253629;28;20039;-65
2023/07/08 06:17:33;;;;;;;6.80;3.05;;;;;;;24.52;54.55;101545.59;10252885;29;20031;-65
2023/07/08 06:22:33;;;;;;;4.85;4.40;;;;;;;24.73;54.31;101561.13;10251963;29;20110;-65
2023/07/08 06:27:33;;;;;;;9.40;3.35;;;;;;;25.16;53.29;101556.13;10268216;28;20058;-63
2023/07/08 06:32:34;;;;;;;4.85;4.45;;;;;;;25.50;51.89;101552.72;10252598;28;20039;-68
2023/07/08 06:37:35;;;;;;;4.00;3.63;;;;;;;25.54;50.19;101559.34;10252862;28;20031;-69
2023/07/08 06:42:35;;;;;;;8.80;3.63;;;;;;;26.03;50.00;101569.72;10267242;28;20447;-68
2023/07/08 06:47:35;;;;;;;6.55;3.75;;;;;;;26.17;48.48;101556.06;10252102;29;20127;-66
2023/07/08 06:52:36;;;;;;;3.42;3.22;;;;;;;26.35;48.67;101547.03;10252124;29;20046;-66
2023/07/08 06:57:40;;;;;;;5.45;3.63;;;;;;;26.63;46.67;101542.69;10251221;29;20078;-66
2023/07/08 07:02:40;;;;;;;14.82;4.13;;;;;;;26.55;46.42;101554.44;10252538;28;20095;-67
2023/07/08 07:07:40;;;;;;;4.38;3.78;;;;;;;26.74;45.57;101545.41;10251089;29;20453;-67
2023/07/08 07:12:41;;;;;;;4.25;3.83;;;;;;;27.28;44.60;101547.13;10196223;28;20055;-65
2023/07/08 07:17:41;;;;;;;4.45;4.15;;;;;;;27.44;44.26;101548.66;10257417;28;20063;-66
2023/07/08 07:22:42;;;;;;;3.38;3.13;;;;;;;27.91;44.25;101541.41;10251421;29;20047;-65
2023/07/08 07:27:42;;;;;;;6.28;3.83;;;;;;;28.08;43.37;101546.47;10250651;29;20035;-65
2023/07/08 07:32:42;;;;;;;4.00;3.72;;;;;;;28.34;43.02;101540.53;10250937;29;20451;-64
2023/07/08 07:37:43;;;;;;;4.22;3.83;;;;;;;28.35;42.62;101531.03;10250843;28;20040;-65
2023/07/08 07:42:44;;;;;;;4.57;4.00;;;;;;;28.97;42.43;101526.94;10249449;29;20046;-65
2023/07/08 07:47:45;;;;;;;4.97;3.95;;;;;;;29.16;41.65;101515.75;10257824;28;20042;-65
2023/07/08 07:52:45;;;;;;;6.05;3.45;;;;;;;29.51;41.92;101521.72;10257225;29;20081;-66
2023/07/08 07:57:46;;;;;;;4.22;3.92;;;;;;;29.86;40.83;101528.56;10258990;29;20055;-65
2023/07/08 08:02:47;;;;;;;5.25;4.60;;;;;;;30.34;40.51;101535.59;10259225;28;20062;-64
2023/07/08 08:07:47;;;;;;;4.25;3.90;;;;;;;30.41;39.60;101549.97;10256899;29;20094;-65
2023/07/08 08:12:50;;;;;;;4.40;4.00;;;;;;;30.48;39.41;101558.75;10258603;28;20118;-64
2023/07/08 08:17:51;;;;;;;4.25;3.85;;;;;;;30.69;39.71;101561.84;10258344;28;20046;-65
2023/07/08 08:22:52;;;;;;;5.60;4.63;;;;;;;30.96;39.71;101557.31;10257937;28;20031;-65
2023/07/08 08:27:52;;;;;;;8.65;4.57;;;;;;;31.54;39.87;101547.88;10257013;28;20442;-65
2023/07/08 08:32:53;;;;;;;4.35;3.95;;;;;;;32.06;38.23;101559.22;10273088;28;20043;-64
2023/07/08 08:37:53;;;;;;;5.13;4.13;;;;;;;32.24;38.66;101554.47;10257616;29;20051;-65
2023/07/08 08:43:00;;;;;;;6.85;5.00;;;;;;;32.67;36.39;101559.25;10257899;28;20281;-64
2023/07/08 08:48:03;;;;;;;5.60;4.18;;;;;;;32.52;38.14;101557.81;10239108;29;20038;-66
2023/07/08 08:53:04;;;;;;;5.93;4.32;;;;;;;33.10;36.70;101549.97;10238671;29;20054;-66
2023/07/08 08:58:07;;;;;;;6.28;4.47;;;;;;;33.30;37.22;101540.00;10256886;28;20050;-64
2023/07/08 09:03:11;;;;;;;6.25;4.18;;;;;;;33.36;37.36;101538.66;10240484;29;20032;-65
2023/07/08 09:08:34;;;;;;;6.18;4.82;;;;;;;33.35;36.17;101534.19;10256733;28;20114;-65
2023/07/08 09:13:35;;;;;;;4.35;4.05;;;;;;;33.49;36.02;101548.00;10254607;29;20027;-66
2023/07/08 09:19:03;;;;;;;6.50;5.15;;;;;;;33.71;35.37;101547.75;10238427;29;20023;-63
2023/07/08 09:24:09;;;;;;;4.88;4.30;;;;;;;34.21;36.81;101560.19;10255613;29;20039;-62
2023/07/08 09:29:10;;;;;;;5.03;4.55;;;;;;;34.24;35.87;101557.50;10237088;29;20066;-62
2023/07/08 09:34:22;;;;;;;6.25;5.65;;;;;;;34.14;36.40;101552.28;10221828;29;20050;-61
2023/07/08 09:39:22;;;;;;;7.55;5.25;;;;;;;34.74;35.34;101546.50;10238957;29;20059;-63
2023/07/08 09:44:29;;;;;;;13.90;4.68;;;;;;;34.69;34.06;101539.91;10253034;29;20042;-65
2023/07/08 09:49:36;;;;;;;5.38;4.72;;;;;;;34.95;33.20;101536.81;10253526;29;20135;-64
2023/07/08 09:54:36;;;;;;;4.97;4.03;;;;;;;34.91;33.78;101535.06;10253523;29;20106;-64
2023/07/08 09:59:47;;;;;;;4.82;4.43;;;;;;;35.11;34.67;101528.56;10253026;29;20174;-63
2023/07/08 10:04:57;;;;;;;5.07;4.68;;;;;;;34.98;33.65;101524.03;10253839;29;20047;-63
2023/07/08 10:10:00;;;;;;;6.00;4.45;;;;;;;35.67;32.87;101530.81;10221137;29;20125;-64
2023/07/08 10:15:06;;;;;;;6.35;5.85;;;;;;;36.02;33.24;101527.50;10253531;29;20121;-63
2023/07/08 10:20:13;;;;;;;8.18;5.55;;;;;;;36.15;33.34;101534.75;10252228;29;20027;-64
2023/07/08 10:25:23;;;;;;;7.45;5.70;;;;;;;35.91;32.82;101537.59;10235769;29;20031;-63
2023/07/08 10:30:25;;;;;;;8.45;6.30;;;;;;;35.98;31.94;101540.63;10253400;28;20532;-63
2023/07/08 10:35:33;;;;;;;5.88;5.30;;;;;;;35.57;32.66;101539.75;10615391;27;1319346;-64
2023/07/08 10:40:48;;;;;;;6.13;5.57;;;;;;;36.10;33.33;101551.91;10593834;28;20044;-62
2023/07/08 10:46:00;;;;;;;14.05;5.03;;;;;;;36.27;31.76;101545.16;10611584;27;20447;-63
2023/07/08 10:51:31;;;;;;;8.10;5.97;;;;;;;36.05;31.91;101543.69;10611682;28;20038;-63
2023/07/08 10:56:43;;;;;;;6.95;5.45;;;;;;;36.12;31.52;101545.91;10573108;28;20072;-63
2023/07/08 11:02:35;;;;;;;19.45;4.97;;;;;;;36.29;31.23;101546.47;10592897;28;20035;-63
2023/07/08 11:07:35;;;;;;;5.35;4.85;;;;;;;36.56;32.41;101546.84;10420466;28;20029;-62
2023/07/08 11:13:02;;;;;;;9.13;5.20;;;;;;;36.64;31.15;101540.22;10571694;27;20066;-64
2023/07/08 11:18:14;;;;;;;5.45;4.32;;;;;;;37.02;30.73;101543.72;10603578;28;20287;-64
2023/07/08 11:23:36;;;;;;;7.53;4.72;;;;;;;37.22;30.12;101540.59;10609239;27;20557;-63
2023/07/08 11:28:36;;;;;;;6.50;5.38;;;;;;;36.48;31.56;101530.88;10608359;27;20055;-65
2023/07/08 11:33:37;;;;;;;4.97;4.65;;;;;;;36.71;30.98;101523.50;10607969;28;20138;-63
2023/07/08 11:38:39;;;;;;;13.37;5.83;;;;;;;36.77;31.06;101533.34;10607657;28;20054;-64
2023/07/08 11:43:59;;;;;;;6.53;5.93;;;;;;;36.97;29.77;101524.97;10582068;28;20325;-65
2023/07/08 11:49:09;;;;;;;7.28;6.30;;;;;;;37.04;29.49;101527.19;10580202;28;20031;-63
2023/07/08 11:54:30;;;;;;;5.75;5.13;;;;;;;37.63;28.68;101512.16;10545219;28;20364;-63
2023/07/08 11:59:32;;;;;;;6.60;5.20;;;;;;;37.28;29.88;101524.19;10579076;28;20043;-64
2023/07/08 12:04:56;;;;;;;9.05;6.30;;;;;;;37.36;30.02;101505.41;10579439;28;20114;-62
2023/07/08 12:10:01;;;;;;;5.70;5.30;;;;;;;37.19;29.33;101510.25;10579297;28;20032;-63
2023/07/08 12:15:34;;;;;;;9.68;5.25;;;;;;;37.66;29.45;101506.59;10577669;28;20102;-65
2023/07/08 12:20:37;;;;;;;6.03;5.50;;;;;;;37.59;28.46;101500.78;10533207;28;20097;-65
2023/07/08 12:25:37;;;;;;;7.00;5.78;;;;;;;37.23;28.54;101507.53;10576852;28;20092;-62
2023/07/08 12:30:38;;;;;;;6.10;5.53;;;;;;;37.30;29.12;101502.03;10577845;28;20104;-64
2023/07/08 12:35:38;;;;;;;8.93;5.38;;;;;;;37.24;28.92;101495.88;10577673;28;20751;-63
2023/07/08 12:40:40;;;;;;;5.88;5.32;;;;;;;38.27;30.20;101490.97;10576173;28;20123;-64
2023/07/08 12:45:40;;;;;;;5.05;4.55;;;;;;;38.65;28.46;101497.00;10576334;28;20024;-64
2023/07/08 12:50:41;;;;;;;5.27;4.83;;;;;;;38.15;27.06;101499.59;10576389;28;20387;-63
2023/07/08 12:55:42;;;;;;;6.28;5.65;;;;;;;38.85;30.33;101490.09;10576858;28;20330;-64
2023/07/08 13:00:43;;;;;;;5.93;5.13;;;;;;;39.23;28.39;101482.66;10575433;28;20031;-63
2023/07/08 13:05:43;;;;;;;5.45;5.05;;;;;;;39.33;29.48;101475.53;10577314;28;20040;-66
2023/07/08 13:10:43;;;;;;;7.20;4.10;;;;;;;38.68;26.05;101493.41;10558887;28;20531;-66
2023/07/08 13:15:44;;;;;;;4.05;3.75;;;;;;;38.42;28.39;101472.31;10575780;28;20264;-66
2023/07/08 13:20:53;;;;;;;5.15;4.65;;;;;;;38.58;29.02;101475.03;10575308;28;20035;-65
2023/07/08 13:25:54;;;;;;;8.75;5.20;;;;;;;38.63;28.22;101465.41;10575132;28;20115;-65
2023/07/08 13:30:56;;;;;;;6.05;5.03;;;;;;;38.21;27.95;101478.31;10557262;28;20605;-65
2023/07/08 13:35:57;;;;;;;4.50;4.10;;;;;;;37.59;28.79;101483.81;10576273;28;20530;-66
2023/07/08 13:41:02;;;;;;;8.90;5.00;;;;;;;37.51;28.29;101482.00;10574591;28;20043;-65
2023/07/08 13:46:03;;;;;;;5.97;4.88;;;;;;;37.75;28.43;101495.09;10576836;28;20038;-66
2023/07/08 13:51:07;;;;;;;7.63;4.28;;;;;;;38.19;29.48;101491.19;10557266;28;20027;-66
2023/07/08 13:56:29;;;;;;;6.25;5.10;;;;;;;38.96;29.83;101490.28;10575770;28;20027;-65
2023/07/08 14:01:30;;;;;;;8.63;5.45;;;;;;;39.37;27.85;101488.56;10574542;28;20036;-65
2023/07/08 14:06:36;;;;;;;5.70;3.38;;;;;;;38.45;29.75;101488.53;10575164;28;20036;-66
2023/07/08 14:11:36;;;;;;;5.85;4.82;;;;;;;38.36;30.04;101476.59;10556944;28;20031;-65
2023/07/08 14:16:39;;;;;;;5.80;5.20;;;;;;;38.03;26.06;101486.41;10574937;28;20043;-66
2023/07/08 14:21:39;;;;;;;5.65;5.15;;;;;;;38.02;26.28;101478.31;10556572;28;20062;-65
2023/07/08 14:26:44;;;;;;;4.88;4.38;;;;;;;37.42;26.86;101487.81;10573394;28;20865;-64
2023/07/08 14:31:45;;;;;;;7.15;4.35;;;;;;;37.19;28.80;101490.50;10572493;28;20055;-66
2023/07/08 14:36:45;;;;;;;6.25;4.45;;;;;;;36.91;28.08;101484.09;10573151;28;20071;-67
2023/07/08 14:41:47;;;;;;;5.57;5.00;;;;;;;35.82;28.64;101490.63;10574620;28;20113;-66
2023/07/08 14:46:47;;;;;;;4.18;3.88;;;;;;;35.38;29.51;101483.97;10573116;28;20059;-66
2023/07/08 14:51:48;;;;;;;6.43;5.07;;;;;;;35.58;28.30;101479.44;10572993;28;20130;-67
2023/07/08 14:56:49;;;;;;;4.50;4.03;;;;;;;35.53;28.08;101488.09;10573487;28;20040;-66
2023/07/08 15:01:49;;;;;;;4.78;4.07;;;;;;;35.60;29.71;101485.50;10574448;28;20046;-66
2023/07/08 15:06:50;;;;;;;6.28;5.28;;;;;;;35.60;30.34;101482.69;10572376;28;20360;-66
2023/07/08 15:11:51;;;;;;;6.80;4.57;;;;;;;35.10;29.72;101483.84;10573535;28;20037;-65
2023/07/08 15:16:52;;;;;;;7.80;6.30;;;;;;;34.85;30.93;101483.81;10572592;28;20059;-66
2023/07/08 15:21:52;;;;;;;7.53;5.93;;;;;;;34.43;32.21;101483.91;10579597;28;20115;-66
2023/07/08 15:26:53;;;;;;;6.35;5.75;;;;;;;34.25;32.44;101479.59;10579717;28;20081;-66
2023/07/08 15:31:53;;;;;;;7.25;6.55;;;;;;;34.12;33.26;101483.53;10581121;28;20130;-66
2023/07/08 15:36:54;;;;;;;6.50;5.88;;;;;;;34.00;33.43;101482.25;10580985;28;20063;-64
2023/07/08 15:41:54;;;;;;;6.93;6.28;;;;;;;33.74;33.64;101492.88;10579517;28;20039;-67
2023/07/08 15:46:55;;;;;;;8.57;6.78;;;;;;;33.51;34.30;101490.38;10579938;28;20040;-66
2023/07/08 15:51:55;;;;;;;14.40;6.80;;;;;;;33.29;34.13;101490.63;10580913;28;20031;-67
2023/07/08 15:56:56;;;;;;;7.20;6.60;;;;;;;33.23;34.29;101489.19;10579490;28;20042;-66
2023/07/08 16:01:59;;;;;;;7.30;5.82;;;;;;;33.24;34.73;101473.97;10578976;28;20515;-65
2023/07/08 16:07:00;;;;;;;6.35;5.68;;;;;;;33.02;34.98;101483.47;10578306;28;20024;-65
2023/07/08 16:12:00;;;;;;;7.45;5.88;;;;;;;32.94;34.91;101492.72;10579412;28;20036;-64
2023/07/08 16:17:01;;;;;;;8.57;6.97;;;;;;;32.75;35.04;101481.91;10577595;28;20043;-65
2023/07/08 16:22:02;;;;;;;8.82;5.93;;;;;;;32.90;35.28;101481.34;10578045;28;20283;-66
2023/07/08 16:27:03;;;;;;;8.73;5.97;;;;;;;32.67;35.30;101482.72;10577224;28;20031;-66
2023/07/08 16:32:08;;;;;;;9.98;6.82;;;;;;;32.56;35.96;101482.28;10506473;28;20567;-66
2023/07/08 16:37:08;;;;;;;7.20;6.43;;;;;;;32.41;35.81;101481.59;10451979;28;20033;-66
2023/07/08 16:42:12;;;;;;;7.25;6.55;;;;;;;32.10;36.17;101469.75;10467907;28;20453;-66
2023/07/08 16:47:12;;;;;;;9.90;7.10;;;;;;;31.89;37.08;101463.97;10435072;28;20041;-65
2023/07/08 16:52:14;;;;;;;6.07;5.53;;;;;;;31.70;37.26;101470.69;10451390;28;20037;-65
2023/07/08 16:57:15;;;;;;;7.05;6.35;;;;;;;31.38;37.55;101477.53;10450541;28;20110;-66
2023/07/08 17:02:15;;;;;;;8.10;6.20;;;;;;;31.10;37.91;101476.91;10452673;28;20090;-67
2023/07/08 17:07:16;;;;;;;8.73;6.47;;;;;;;30.96;37.85;101487.38;10451815;28;20731;-65
2023/07/08 17:12:16;;;;;;;8.25;7.28;;;;;;;30.76;38.37;101480.31;10435438;28;20032;-67
2023/07/08 17:17:17;;;;;;;9.18;8.23;;;;;;;30.59;38.45;101467.06;10450981;28;20043;-66
2023/07/08 17:22:17;;;;;;;10.05;7.68;;;;;;;30.52;38.54;101480.66;10451689;28;20481;-66
2023/07/08 17:27:18;;;;;;;9.25;7.00;;;;;;;30.44;39.30;101481.41;10450994;28;20349;-67
2023/07/08 17:32:20;;;;;;;9.02;8.00;;;;;;;30.20;39.88;101471.41;10451510;28;20060;-67
2023/07/08 17:37:20;;;;;;;8.75;7.85;;;;;;;30.09;40.03;101465.22;10449893;28;20082;-66
2023/07/08 17:42:21;;;;;;;10.73;6.95;;;;;;;30.10;40.38;101472.44;10450306;28;20093;-67
2023/07/08 17:47:21;;;;;;;13.80;7.00;;;;;;;30.21;40.47;101464.66;10450510;28;20166;-66
2023/07/08 17:52:22;;;;;;;8.40;6.28;;;;;;;30.32;39.38;101470.84;10432349;28;20360;-65
2023/07/08 17:57:22;;;;;;;7.50;6.13;;;;;;;30.24;39.81;101471.59;10448478;28;20033;-66
2023/07/08 18:02:23;;;;;;;7.65;6.45;;;;;;;30.08;40.18;101462.72;10449093;28;20377;-65
2023/07/08 18:07:25;;;;;;;14.52;8.38;;;;;;;29.86;40.26;101455.13;10449817;28;20044;-66
2023/07/08 18:12:25;;;;;;;9.20;7.78;;;;;;;29.56;40.65;101465.00;10450680;28;20101;-65
2023/07/08 18:17:26;;;;;;;17.48;6.63;;;;;;;29.31;40.75;101475.56;10450266;28;20041;-65
2023/07/08 18:22:26;;;;;;;12.98;7.90;;;;;;;29.14;40.77;101472.56;10451453;28;20056;-65
2023/07/08 18:27:27;;;;;;;13.18;5.90;;;;;;;29.03;41.17;101474.72;10448641;28;20079;-67
2023/07/08 18:32:27;;;;;;;10.50;6.75;;;;;;;28.95;41.07;101481.81;10449403;28;20059;-65
2023/07/08 18:37:27;;;;;;;7.30;6.70;;;;;;;28.91;40.78;101493.91;10449541;28;20191;-66
2023/07/08 18:42:28;;;;;;;6.97;5.60;;;;;;;28.81;40.98;101506.03;10431357;28;20055;-66
2023/07/08 18:47:29;;;;;;;7.90;5.97;;;;;;;28.79;40.90;101502.75;10448009;28;20559;-65
2023/07/08 18:52:29;;;;;;;8.75;5.93;;;;;;;28.72;41.13;101505.09;10449055;28;20124;-66
2023/07/08 18:57:32;;;;;;;8.82;6.63;;;;;;;28.65;41.17;101513.00;10456951;28;20128;-67
2023/07/08 19:02:36;;;;;;;11.85;6.95;;;;;;;28.52;41.62;101521.00;10455916;28;20055;-66
2023/07/08 19:07:37;;;;;;;16.33;6.82;;;;;;;28.36;41.54;101515.97;10439341;28;20488;-66
2023/07/08 19:12:37;;;;;;;7.15;6.10;;;;;;;28.18;41.79;101517.66;10439009;28;20033;-66
2023/07/08 19:17:38;;;;;;;6.43;5.82;;;;;;;27.91;42.01;101513.56;10455422;28;20059;-67
2023/07/08 19:22:38;;;;;;;11.23;6.78;;;;;;;27.65;42.28;101521.38;10455145;28;20449;-66
2023/07/08 19:27:39;;;;;;;7.18;6.22;;;;;;;27.45;42.74;101516.09;10454713;28;20108;-66
2023/07/08 19:32:41;;;;;;;14.20;6.15;;;;;;;27.25;42.94;101519.91;10455908;28;20057;-66
2023/07/08 19:37:42;;;;;;;7.07;6.35;;;;;;;27.06;42.91;101515.09;10454506;28;20036;-64
2023/07/08 19:42:43;;;;;;;7.68;6.88;;;;;;;26.90;43.24;101514.41;10455896;28;20040;-66
2023/07/08 19:47:44;;;;;;;8.40;7.05;;;;;;;26.78;43.81;101515.94;10437497;28;20159;-65
2023/07/08 19:52:44;;;;;;;7.85;6.45;;;;;;;26.62;44.43;101520.78;10455450;28;20041;-65
2023/07/08 19:57:51;;;;;;;13.07;7.63;;;;;;;26.47;44.71;101523.66;10453069;28;20065;-66
2023/07/08 20:02:52;;;;;;;9.35;7.88;;;;;;;26.35;44.64;101524.81;10454641;28;20033;-66
2023/07/08 20:08:01;;;;;;;9.23;7.05;;;;;;;26.19;45.28;101532.44;10452934;28;20602;-65
2023/07/08 20:13:01;;;;;;;9.50;8.00;;;;;;;26.08;45.41;101541.13;10453326;28;20112;-66
2023/07/08 20:18:02;;;;;;;8.60;7.40;;;;;;;25.92;45.18;101543.97;10454299;28;20037;-66
2023/07/08 20:23:03;;;;;;;10.57;8.02;;;;;;;25.80;45.57;101553.72;10453886;28;20033;-65
2023/07/08 20:28:03;;;;;;;9.55;8.07;;;;;;;25.64;45.99;101564.03;10453302;28;20032;-66
2023/07/08 20:33:04;;;;;;;9.43;8.50;;;;;;;25.45;46.76;101570.19;10452094;28;20160;-66
2023/07/08 20:38:04;;;;;;;9.18;8.23;;;;;;;25.33;46.96;101586.28;10453504;28;20041;-66
2023/07/08 20:43:14;;;;;;;8.15;7.15;;;;;;;25.22;47.69;101579.13;10453567;28;20037;-67
2023/07/08 20:48:24;;;;;;;13.10;8.65;;;;;;;25.16;47.73;101580.25;10452360;28;20403;-65
2023/07/08 20:53:25;;;;;;;9.57;8.43;;;;;;;25.11;48.01;101582.97;10435025;28;20028;-65
2023/07/08 20:58:25;;;;;;;10.52;8.15;;;;;;;25.03;48.20;101576.88;10451065;28;20029;-65
2023/07/08 21:03:26;;;;;;;28.25;19.55;;;;;;;24.99;48.20;101566.66;10450928;28;20465;-64
2023/07/08 21:08:36;;;;;;;11.95;8.00;;;;;;;24.92;49.03;101571.63;10418294;28;20037;-67
2023/07/08 21:13:40;;;;;;;8.18;7.38;;;;;;;24.80;49.27;101566.38;10450510;28;20140;-63
2023/07/08 21:18:40;;;;;;;12.43;10.05;;;;;;;24.77;49.26;101578.84;10449288;28;20120;-63
2023/07/08 21:23:41;;;;;;;14.25;9.30;;;;;;;24.72;49.59;101576.06;10450288;28;20388;-63
2023/07/08 21:28:41;;;;;;;19.30;13.35;;;;;;;24.63;49.59;101569.41;10449591;28;20033;-64
2023/07/08 21:33:42;;;;;;;13.45;9.45;;;;;;;24.56;50.03;101580.75;10449822;28;20082;-63
2023/07/08 21:38:42;;;;;;;14.00;8.98;;;;;;;24.48;50.24;101588.78;10450936;28;20041;-64
2023/07/08 21:43:42;;;;;;;13.77;8.52;;;;;;;24.46;50.25;101588.22;10452126;28;20458;-65
2023/07/08 21:48:43;;;;;;;11.10;9.15;;;;;;;24.40;50.58;101603.94;10449844;28;20068;-68
2023/07/08 21:53:46;;;;;;;10.13;9.18;;;;;;;24.33;50.80;101595.91;10451122;28;20478;-68
2023/07/08 21:58:46;;;;;;;11.80;9.73;;;;;;;24.29;51.22;101619.72;10431690;28;20524;-69
2023/07/08 22:03:47;;;;;;;14.73;9.40;;;;;;;24.29;51.28;101613.34;10448602;28;20033;-68
2023/07/08 22:08:47;;;;;;;15.82;8.95;;;;;;;24.24;51.56;101611.38;10449013;28;20037;-67
2023/07/08 22:13:48;;;;;;;11.90;8.52;;;;;;;24.20;51.67;101626.88;10448697;28;20032;-67
2023/07/08 22:18:48;;;;;;;9.38;8.38;;;;;;;24.18;51.96;101633.78;10450092;28;20140;-67
2023/07/08 22:23:49;;;;;;;23.67;9.45;;;;;;;24.12;52.25;101624.59;10448446;28;20120;-67
2023/07/08 22:28:49;;;;;;;14.15;9.70;;;;;;;24.06;53.04;101628.50;10448801;28;20045;-67
2023/07/08 22:33:49;;;;;;;11.95;8.68;;;;;;;24.01;52.95;101632.03;10449399;28;20573;-67
2023/07/08 22:39:00;;;;;;;12.88;8.85;;;;;;;23.98;53.79;101637.28;10449465;28;20102;-68
2023/07/08 22:44:00;;;;;;;14.73;10.57;;;;;;;23.92;53.46;101624.53;10448524;28;20033;-68
2023/07/08 22:49:01;;;;;;;11.60;9.98;;;;;;;23.84;53.77;101610.13;10449310;28;20041;-68
2023/07/08 22:54:01;;;;;;;12.75;11.55;;;;;;;23.80;54.12;101610.91;10449183;28;20039;-68
2023/07/08 22:59:02;;;;;;;14.85;11.10;;;;;;;23.76;54.81;101612.56;10423884;28;20163;-68
2023/07/08 23:04:03;;;;;;;12.73;10.38;;;;;;;23.72;55.11;101619.75;10407127;28;20040;-68